Impacts TAF Board INFO
FOR SITUATIONAL AWARENESS. NOT TO BE USED FOR FLIGHT PLANNING PURPOSES.
IDs:

KJFK - New York/Kennedy Int, NY, US

Issued at 0806 UTC 20 Jan 2018
Updated at 0916 UTC 20 Jan 2018
Potential Impact None Slight Moderate High
Time0851Z 20/10Z 20/11Z 20/12Z 20/13Z 20/14Z 20/15Z 20/16Z 20/17Z 20/18Z 20/19Z 20/20Z 20/21Z 20/22Z>>
Type OBS PRVL PRVL PRVL PRVL PRVL PRVL PRVL PRVL PRVL PRVL PRVL PRVL PRVL
VIS 10 >6 >6 >6 >6 >6 >6 >6 >6 >6 >6 >6 >6 >6
CIG -- -- -- -- -- -- -- -- -- -- -- -- -- --
Cover FEW FEW FEW FEW FEW FEW FEW FEW FEW FEW FEW FEW FEW FEW
FltCat VFR VFR VFR VFR VFR VFR VFR VFR VFR VFR VFR VFR VFR VFR
WX -- -- -- -- -- -- -- -- -- -- -- -- -- --
WDir 230 220 220 220 220 240 240 240 250 250 250 250 250 250
WSpd 8 7 7 7 7 13 13 13 15 15 15 15 15 15
WGst -- -- -- -- -- -- -- -- -- -- -- -- -- --

Raw TAF
KJFK 200806Z 2008/2112 22007KT P6SM FEW200
  FM201400 24013KT P6SM FEW200
  FM201700 25015KT P6SM FEW200
  FM202300 26010KT P6SM FEW200
  FM210800 29007KT P6SM FEW020 SCT200


Raw METAR
KJFK 200851Z 23008KT 10SM FEW250 M01/M05 A2991 RMK AO2 SLP128 T10061050 58012
KJFK 200751Z 22005KT 10SM FEW250 M01/M05 A2993 RMK AO2 SLP133 T10061050
KJFK 200651Z 21007KT 10SM FEW250 M01/M04 A2994 RMK AO2 SLP136 T10061044

METAR Board
Radar Display
Forecast Discussion

FOR SITUATIONAL AWARENESS. NOT TO BE USED FOR FLIGHT PLANNING PURPOSES.